sensor_id;sensor_type;location;lat;lon;timestamp;pressure;altitude;pressure_sealevel;temperature;humidity
16461;BME280;8341;42.048;24.650;2023-01-29T00:01:07;97354.78;;;3.82;74.96
16461;BME280;8341;42.048;24.650;2023-01-29T00:03:36;97331.44;;;3.75;74.35
16461;BME280;8341;42.048;24.650;2023-01-29T00:06:04;97323.44;;;3.72;74.61
16461;BME280;8341;42.048;24.650;2023-01-29T00:08:32;97347.16;;;3.93;74.13
16461;BME280;8341;42.048;24.650;2023-01-29T00:11:00;97334.38;;;3.81;74.86
16461;BME280;8341;42.048;24.650;2023-01-29T00:13:27;97351.25;;;3.85;75.16
16461;BME280;8341;42.048;24.650;2023-01-29T00:15:55;97351.31;;;3.82;75.52
16461;BME280;8341;42.048;24.650;2023-01-29T00:18:23;97353.06;;;3.88;74.65
16461;BME280;8341;42.048;24.650;2023-01-29T00:20:52;97362.19;;;3.78;74.11
16461;BME280;8341;42.048;24.650;2023-01-29T00:23:19;97361.72;;;3.67;74.67
16461;BME280;8341;42.048;24.650;2023-01-29T00:25:46;97366.22;;;3.70;74.16
16461;BME280;8341;42.048;24.650;2023-01-29T00:28:13;97365.25;;;3.64;74.42
16461;BME280;8341;42.048;24.650;2023-01-29T00:30:41;97364.34;;;3.54;75.21
16461;BME280;8341;42.048;24.650;2023-01-29T00:33:08;97368.47;;;3.59;75.50
16461;BME280;8341;42.048;24.650;2023-01-29T00:35:38;97366.25;;;3.54;75.74
16461;BME280;8341;42.048;24.650;2023-01-29T00:38:07;97363.22;;;3.52;75.54
16461;BME280;8341;42.048;24.650;2023-01-29T00:40:37;97371.47;;;3.61;75.78
16461;BME280;8341;42.048;24.650;2023-01-29T00:43:21;97371.28;;;3.68;75.70
16461;BME280;8341;42.048;24.650;2023-01-29T00:46:06;97370.13;;;3.69;76.65
16461;BME280;8341;42.048;24.650;2023-01-29T00:48:33;97362.38;;;3.55;76.39
16461;BME280;8341;42.048;24.650;2023-01-29T00:51:00;97365.44;;;3.57;75.66
16461;BME280;8341;42.048;24.650;2023-01-29T00:53:28;97364.41;;;3.67;76.01
16461;BME280;8341;42.048;24.650;2023-01-29T00:55:55;97363.03;;;3.75;75.51
16461;BME280;8341;42.048;24.650;2023-01-29T00:58:22;97363.28;;;3.80;76.24
16461;BME280;8341;42.048;24.650;2023-01-29T01:00:53;97358.97;;;3.83;76.26
16461;BME280;8341;42.048;24.650;2023-01-29T01:03:20;97358.72;;;3.77;75.73
16461;BME280;8341;42.048;24.650;2023-01-29T01:05:46;97364.72;;;3.85;75.83
16461;BME280;8341;42.048;24.650;2023-01-29T01:08:13;97358.72;;;3.77;76.12
16461;BME280;8341;42.048;24.650;2023-01-29T01:11:00;97361.72;;;3.67;75.92
16461;BME280;8341;42.048;24.650;2023-01-29T01:13:28;97356.97;;;3.55;76.16
16461;BME280;8341;42.048;24.650;2023-01-29T01:15:56;97367.25;;;3.60;76.39
16461;BME280;8341;42.048;24.650;2023-01-29T01:18:23;97367.75;;;3.55;76.25
16461;BME280;8341;42.048;24.650;2023-01-29T01:20:56;97367.94;;;3.64;77.13
16461;BME280;8341;42.048;24.650;2023-01-29T01:23:23;97370.31;;;3.62;77.38
16461;BME280;8341;42.048;24.650;2023-01-29T01:25:49;97369.03;;;3.50;77.77
16461;BME280;8341;42.048;24.650;2023-01-29T01:28:17;97368.59;;;3.52;78.42
16461;BME280;8341;42.048;24.650;2023-01-29T01:30:44;97372.16;;;3.49;79.22
16461;BME280;8341;42.048;24.650;2023-01-29T01:33:11;97375.25;;;3.47;79.14
16461;BME280;8341;42.048;24.650;2023-01-29T01:35:38;97370.63;;;3.48;79.43
16461;BME280;8341;42.048;24.650;2023-01-29T01:38:05;97347.97;;;3.29;79.24
16461;BME280;8341;42.048;24.650;2023-01-29T01:40:32;97364.72;;;3.37;80.23
16461;BME280;8341;42.048;24.650;2023-01-29T01:42:59;97369.38;;;3.36;81.08
16461;BME280;8341;42.048;24.650;2023-01-29T01:45:30;97368.78;;;3.29;82.25
16461;BME280;8341;42.048;24.650;2023-01-29T01:48:00;97362.72;;;3.25;82.82
16461;BME280;8341;42.048;24.650;2023-01-29T01:50:33;97356.31;;;3.02;83.51
16461;BME280;8341;42.048;24.650;2023-01-29T01:53:03;97369.78;;;3.18;83.62
16461;BME280;8341;42.048;24.650;2023-01-29T01:55:34;97364.38;;;3.18;84.39
16461;BME280;8341;42.048;24.650;2023-01-29T01:58:07;97368.94;;;3.22;83.99
16461;BME280;8341;42.048;24.650;2023-01-29T02:00:38;97343.44;;;3.10;84.29
16461;BME280;8341;42.048;24.650;2023-01-29T02:03:06;97371.47;;;3.45;83.39
16461;BME280;8341;42.048;24.650;2023-01-29T02:05:52;97360.22;;;3.34;83.86
16461;BME280;8341;42.048;24.650;2023-01-29T02:08:43;97369.53;;;3.29;85.14
16461;BME280;8341;42.048;24.650;2023-01-29T02:11:29;97372.72;;;3.24;86.74
16461;BME280;8341;42.048;24.650;2023-01-29T02:13:56;97361.88;;;3.28;86.97
16461;BME280;8341;42.048;24.650;2023-01-29T02:16:25;97373.19;;;3.39;86.74
16461;BME280;8341;42.048;24.650;2023-01-29T02:18:52;97370.81;;;3.41;87.18
16461;BME280;8341;42.048;24.650;2023-01-29T02:21:33;97366.00;;;3.32;86.76
16461;BME280;8341;42.048;24.650;2023-01-29T02:24:16;97372.75;;;3.40;86.85
16461;BME280;8341;42.048;24.650;2023-01-29T02:26:57;97373.91;;;3.39;87.12
16461;BME280;8341;42.048;24.650;2023-01-29T02:29:34;97379.72;;;3.38;86.80
16461;BME280;8341;42.048;24.650;2023-01-29T02:32:16;97377.09;;;3.34;86.64
16461;BME280;8341;42.048;24.650;2023-01-29T02:34:52;97386.16;;;3.44;86.06
16461;BME280;8341;42.048;24.650;2023-01-29T02:37:49;97386.97;;;3.41;86.73
16461;BME280;8341;42.048;24.650;2023-01-29T02:40:28;97388.84;;;3.44;86.41
16461;BME280;8341;42.048;24.650;2023-01-29T02:43:01;97383.09;;;3.42;86.43
16461;BME280;8341;42.048;24.650;2023-01-29T02:45:34;97388.00;;;3.31;87.23
16461;BME280;8341;42.048;24.650;2023-01-29T02:48:07;97392.19;;;3.32;88.44
16461;BME280;8341;42.048;24.650;2023-01-29T02:50:42;97391.69;;;3.21;89.19
16461;BME280;8341;42.048;24.650;2023-01-29T02:53:14;97376.84;;;3.12;89.71
16461;BME280;8341;42.048;24.650;2023-01-29T02:55:43;97392.69;;;3.27;90.42
16461;BME280;8341;42.048;24.650;2023-01-29T02:58:16;97398.50;;;3.25;91.88
16461;BME280;8341;42.048;24.650;2023-01-29T03:00:46;97389.00;;;3.21;91.24
16461;BME280;8341;42.048;24.650;2023-01-29T03:03:16;97397.41;;;3.23;91.84
16461;BME280;8341;42.048;24.650;2023-01-29T03:05:50;97396.13;;;3.11;92.77
16461;BME280;8341;42.048;24.650;2023-01-29T03:08:27;97403.63;;;3.20;93.78
16461;BME280;8341;42.048;24.650;2023-01-29T03:11:03;97381.03;;;2.97;95.30
16461;BME280;8341;42.048;24.650;2023-01-29T03:13:35;97405.19;;;3.01;96.60
16461;BME280;8341;42.048;24.650;2023-01-29T03:16:08;97407.16;;;3.00;97.66
16461;BME280;8341;42.048;24.650;2023-01-29T03:18:39;97405.78;;;2.92;99.01
16461;BME280;8341;42.048;24.650;2023-01-29T03:21:14;97408.19;;;2.87;99.33
16461;BME280;8341;42.048;24.650;2023-01-29T03:23:59;97409.97;;;2.93;100.00
16461;BME280;8341;42.048;24.650;2023-01-29T03:26:43;97417.94;;;2.81;100.00
16461;BME280;8341;42.048;24.650;2023-01-29T03:29:29;97416.97;;;2.71;100.00
16461;BME280;8341;42.048;24.650;2023-01-29T03:32:16;97415.50;;;2.86;100.00
16461;BME280;8341;42.048;24.650;2023-01-29T03:34:47;97416.81;;;2.78;100.00
16461;BME280;8341;42.048;24.650;2023-01-29T03:37:21;97425.00;;;2.75;100.00
16461;BME280;8341;42.048;24.650;2023-01-29T03:39:50;97420.72;;;2.77;100.00
16461;BME280;8341;42.048;24.650;2023-01-29T03:42:21;97422.44;;;2.87;100.00
16461;BME280;8341;42.048;24.650;2023-01-29T03:44:56;97416.28;;;2.87;100.00
16461;BME280;8341;42.048;24.650;2023-01-29T03:47:33;97429.31;;;2.88;100.00
16461;BME280;8341;42.048;24.650;2023-01-29T03:50:08;97420.41;;;2.91;100.00
16461;BME280;8341;42.048;24.650;2023-01-29T03:52:41;97418.75;;;2.97;100.00
16461;BME280;8341;42.048;24.650;2023-01-29T03:55:14;97420.84;;;2.90;99.31
16461;BME280;8341;42.048;24.650;2023-01-29T03:57:48;97413.94;;;2.69;100.00
16461;BME280;8341;42.048;24.650;2023-01-29T04:00:20;97427.66;;;2.94;100.00
16461;BME280;8341;42.048;24.650;2023-01-29T04:02:54;97433.19;;;2.87;100.00
16461;BME280;8341;42.048;24.650;2023-01-29T04:05:25;97432.00;;;2.88;100.00
16461;BME280;8341;42.048;24.650;2023-01-29T04:08:00;97429.03;;;2.83;100.00
16461;BME280;8341;42.048;24.650;2023-01-29T04:10:28;97431.00;;;2.82;100.00
16461;BME280;8341;42.048;24.650;2023-01-29T04:12:59;97434.41;;;2.83;100.00
16461;BME280;8341;42.048;24.650;2023-01-29T04:15:29;97443.47;;;2.92;100.00
16461;BME280;8341;42.048;24.650;2023-01-29T04:18:00;97449.69;;;2.89;99.42
16461;BME280;8341;42.048;24.650;2023-01-29T04:20:28;97439.25;;;2.91;99.46
16461;BME280;8341;42.048;24.650;2023-01-29T04:22:54;97453.41;;;2.95;98.69
16461;BME280;8341;42.048;24.650;2023-01-29T04:25:23;97453.28;;;3.02;99.25
16461;BME280;8341;42.048;24.650;2023-01-29T04:28:00;97454.88;;;3.00;98.54
16461;BME280;8341;42.048;24.650;2023-01-29T04:30:37;97455.63;;;3.00;98.37
16461;BME280;8341;42.048;24.650;2023-01-29T04:33:20;97447.41;;;3.07;98.39
16461;BME280;8341;42.048;24.650;2023-01-29T04:36:04;97463.13;;;3.09;98.11
16461;BME280;8341;42.048;24.650;2023-01-29T04:38:41;97455.22;;;3.02;96.26
16461;BME280;8341;42.048;24.650;2023-01-29T04:41:16;97460.75;;;2.95;96.02
16461;BME280;8341;42.048;24.650;2023-01-29T04:43:52;97461.16;;;2.93;95.37
16461;BME280;8341;42.048;24.650;2023-01-29T04:46:26;97461.41;;;2.99;96.04
16461;BME280;8341;42.048;24.650;2023-01-29T04:49:08;97466.19;;;2.91;96.50
16461;BME280;8341;42.048;24.650;2023-01-29T04:51:46;97470.75;;;2.94;95.85
16461;BME280;8341;42.048;24.650;2023-01-29T04:54:19;97467.78;;;2.89;94.85
16461;BME280;8341;42.048;24.650;2023-01-29T04:56:52;97466.53;;;2.93;94.82
16461;BME280;8341;42.048;24.650;2023-01-29T04:59:26;97467.09;;;3.04;94.95
16461;BME280;8341;42.048;24.650;2023-01-29T05:01:54;97476.47;;;2.96;94.95
16461;BME280;8341;42.048;24.650;2023-01-29T05:04:24;97474.34;;;2.88;95.50
16461;BME280;8341;42.048;24.650;2023-01-29T05:06:52;97468.00;;;2.78;95.25
16461;BME280;8341;42.048;24.650;2023-01-29T05:09:19;97472.41;;;2.88;95.38
16461;BME280;8341;42.048;24.650;2023-01-29T05:11:47;97490.09;;;2.89;96.75
16461;BME280;8341;42.048;24.650;2023-01-29T05:14:17;97486.34;;;2.83;96.75
16461;BME280;8341;42.048;24.650;2023-01-29T05:16:47;97484.56;;;2.77;97.80
16461;BME280;8341;42.048;24.650;2023-01-29T05:19:17;97480.63;;;2.81;97.51
16461;BME280;8341;42.048;24.650;2023-01-29T05:21:47;97481.06;;;2.80;97.94
16461;BME280;8341;42.048;24.650;2023-01-29T05:24:15;97486.94;;;2.75;98.14
16461;BME280;8341;42.048;24.650;2023-01-29T05:26:44;97433.00;;;2.59;98.06
16461;BME280;8341;42.048;24.650;2023-01-29T05:29:29;97499.47;;;2.81;97.52
16461;BME280;8341;42.048;24.650;2023-01-29T05:31:56;97470.06;;;2.71;96.96
16461;BME280;8341;42.048;24.650;2023-01-29T05:34:23;97488.22;;;2.86;97.17
16461;BME280;8341;42.048;24.650;2023-01-29T05:36:51;97498.56;;;2.88;95.67
16461;BME280;8341;42.048;24.650;2023-01-29T05:39:18;97498.56;;;2.88;95.27
16461;BME280;8341;42.048;24.650;2023-01-29T05:41:45;97491.06;;;2.79;94.43
16461;BME280;8341;42.048;24.650;2023-01-29T05:44:12;97491.34;;;2.85;94.42
16461;BME280;8341;42.048;24.650;2023-01-29T05:46:39;97504.78;;;3.04;93.05
16461;BME280;8341;42.048;24.650;2023-01-29T05:49:06;97483.88;;;2.73;92.09
16461;BME280;8341;42.048;24.650;2023-01-29T05:51:32;97505.47;;;3.08;92.43
16461;BME280;8341;42.048;24.650;2023-01-29T05:54:00;97513.03;;;2.97;91.53
16461;BME280;8341;42.048;24.650;2023-01-29T05:56:27;97523.03;;;2.97;90.78
16461;BME280;8341;42.048;24.650;2023-01-29T05:58:55;97521.09;;;2.97;91.29
16461;BME280;8341;42.048;24.650;2023-01-29T06:01:23;97527.94;;;3.02;91.15
16461;BME280;8341;42.048;24.650;2023-01-29T06:03:51;97532.06;;;3.06;91.07
16461;BME280;8341;42.048;24.650;2023-01-29T06:06:18;97532.84;;;3.07;90.46
16461;BME280;8341;42.048;24.650;2023-01-29T06:08:45;97530.91;;;3.07;90.71
16461;BME280;8341;42.048;24.650;2023-01-29T06:11:15;97518.75;;;2.99;90.89
16461;BME280;8341;42.048;24.650;2023-01-29T06:13:42;97543.34;;;3.01;91.78
16461;BME280;8341;42.048;24.650;2023-01-29T06:16:10;97538.00;;;2.98;92.30
16461;BME280;8341;42.048;24.650;2023-01-29T06:18:38;97544.25;;;2.95;92.20
16461;BME280;8341;42.048;24.650;2023-01-29T06:21:07;97550.31;;;2.99;92.04
16461;BME280;8341;42.048;24.650;2023-01-29T06:23:34;97526.78;;;2.60;91.48
16461;BME280;8341;42.048;24.650;2023-01-29T06:26:04;97552.19;;;2.82;91.57
16461;BME280;8341;42.048;24.650;2023-01-29T06:28:32;97556.81;;;2.82;92.20
16461;BME280;8341;42.048;24.650;2023-01-29T06:31:01;97554.31;;;2.91;93.11
16461;BME280;8341;42.048;24.650;2023-01-29T06:33:28;97552.09;;;2.86;94.33
16461;BME280;8341;42.048;24.650;2023-01-29T06:36:00;97557.16;;;3.03;93.31
16461;BME280;8341;42.048;24.650;2023-01-29T06:38:27;97567.28;;;2.96;93.29
16461;BME280;8341;42.048;24.650;2023-01-29T06:40:56;97573.94;;;2.91;93.87
16461;BME280;8341;42.048;24.650;2023-01-29T06:43:23;97569.13;;;3.02;93.41
16461;BME280;8341;42.048;24.650;2023-01-29T06:45:52;97572.56;;;3.03;94.01
16461;BME280;8341;42.048;24.650;2023-01-29T06:48:21;97576.28;;;3.09;94.62
16461;BME280;8341;42.048;24.650;2023-01-29T06:50:48;97575.31;;;3.19;94.76
16461;BME280;8341;42.048;24.650;2023-01-29T06:53:20;97585.22;;;3.26;93.36
16461;BME280;8341;42.048;24.650;2023-01-29T06:55:50;97575.41;;;3.15;94.42
16461;BME280;8341;42.048;24.650;2023-01-29T06:58:17;97591.44;;;3.23;94.64
16461;BME280;8341;42.048;24.650;2023-01-29T07:00:46;97587.53;;;3.24;93.86
16461;BME280;8341;42.048;24.650;2023-01-29T07:03:15;97568.78;;;3.00;93.95
16461;BME280;8341;42.048;24.650;2023-01-29T07:05:41;97600.34;;;3.20;94.53
16461;BME280;8341;42.048;24.650;2023-01-29T07:08:08;97587.69;;;3.16;94.17
16461;BME280;8341;42.048;24.650;2023-01-29T07:10:35;97582.16;;;3.24;94.39
16461;BME280;8341;42.048;24.650;2023-01-29T07:13:02;97593.44;;;3.38;93.39
16461;BME280;8341;42.048;24.650;2023-01-29T07:15:29;97594.47;;;3.25;93.03
16461;BME280;8341;42.048;24.650;2023-01-29T07:17:57;97581.28;;;3.10;93.84
16461;BME280;8341;42.048;24.650;2023-01-29T07:20:27;97602.41;;;3.12;94.05
16461;BME280;8341;42.048;24.650;2023-01-29T07:22:55;97598.31;;;3.24;93.75
16461;BME280;8341;42.048;24.650;2023-01-29T07:25:23;97587.84;;;3.09;93.84
16461;BME280;8341;42.048;24.650;2023-01-29T07:27:50;97611.41;;;3.25;93.77
16461;BME280;8341;42.048;24.650;2023-01-29T07:30:17;97605.97;;;3.29;94.29
16461;BME280;8341;42.048;24.650;2023-01-29T07:32:44;97604.56;;;3.21;94.97
16461;BME280;8341;42.048;24.650;2023-01-29T07:35:10;97611.13;;;3.39;93.93
16461;BME280;8341;42.048;24.650;2023-01-29T07:37:39;97607.88;;;3.28;93.66
16461;BME280;8341;42.048;24.650;2023-01-29T07:40:06;97614.19;;;3.41;93.77
16461;BME280;8341;42.048;24.650;2023-01-29T07:42:36;97613.06;;;3.39;93.75
16461;BME280;8341;42.048;24.650;2023-01-29T07:45:05;97613.31;;;3.44;93.34
16461;BME280;8341;42.048;24.650;2023-01-29T07:47:32;97607.09;;;3.47;93.22
16461;BME280;8341;42.048;24.650;2023-01-29T07:49:59;97611.25;;;3.52;93.73
16461;BME280;8341;42.048;24.650;2023-01-29T07:52:28;97600.47;;;3.12;93.38
16461;BME280;8341;42.048;24.650;2023-01-29T07:54:56;97612.38;;;3.35;93.60
16461;BME280;8341;42.048;24.650;2023-01-29T07:57:24;97619.47;;;3.45;94.22
16461;BME280;8341;42.048;24.650;2023-01-29T07:59:50;97602.06;;;3.30;93.70
16461;BME280;8341;42.048;24.650;2023-01-29T08:02:17;97621.84;;;3.43;93.69
16461;BME280;8341;42.048;24.650;2023-01-29T08:04:44;97620.03;;;3.56;93.10
16461;BME280;8341;42.048;24.650;2023-01-29T08:07:11;97623.22;;;3.51;93.79
16461;BME280;8341;42.048;24.650;2023-01-29T08:09:37;97628.47;;;3.58;93.49
16461;BME280;8341;42.048;24.650;2023-01-29T08:12:06;97608.09;;;3.57;92.78
16461;BME280;8341;42.048;24.650;2023-01-29T08:14:33;97629.78;;;3.69;92.03
16461;BME280;8341;42.048;24.650;2023-01-29T08:16:59;97636.53;;;3.77;92.94
16461;BME280;8341;42.048;24.650;2023-01-29T08:19:26;97637.66;;;3.60;91.90
16461;BME280;8341;42.048;24.650;2023-01-29T08:21:53;97635.84;;;3.73;92.29
16461;BME280;8341;42.048;24.650;2023-01-29T08:24:20;97619.56;;;3.41;94.12
16461;BME280;8341;42.048;24.650;2023-01-29T08:26:46;97640.78;;;3.59;93.92
16461;BME280;8341;42.048;24.650;2023-01-29T08:29:15;97636.78;;;3.67;93.58
16461;BME280;8341;42.048;24.650;2023-01-29T08:31:42;97640.34;;;3.80;92.36
16461;BME280;8341;42.048;24.650;2023-01-29T08:34:09;97647.25;;;3.81;92.42
16461;BME280;8341;42.048;24.650;2023-01-29T08:36:35;97644.91;;;3.83;91.68
16461;BME280;8341;42.048;24.650;2023-01-29T08:39:02;97653.19;;;3.92;91.17
16461;BME280;8341;42.048;24.650;2023-01-29T08:41:29;97654.22;;;3.98;90.63
16461;BME280;8341;42.048;24.650;2023-01-29T08:43:56;97652.53;;;3.68;92.18
16461;BME280;8341;42.048;24.650;2023-01-29T08:46:26;97664.56;;;3.64;93.18
16461;BME280;8341;42.048;24.650;2023-01-29T08:48:52;97660.06;;;3.77;93.08
16461;BME280;8341;42.048;24.650;2023-01-29T08:51:19;97620.94;;;3.49;92.43
16461;BME280;8341;42.048;24.650;2023-01-29T08:53:47;97661.78;;;3.67;92.84
16461;BME280;8341;42.048;24.650;2023-01-29T08:56:13;97657.44;;;3.73;92.30
16461;BME280;8341;42.048;24.650;2023-01-29T08:58:41;97668.06;;;3.80;90.38
16461;BME280;8341;42.048;24.650;2023-01-29T09:01:10;97662.41;;;3.95;91.74
16461;BME280;8341;42.048;24.650;2023-01-29T09:03:38;97661.59;;;4.14;89.78
16461;BME280;8341;42.048;24.650;2023-01-29T09:06:09;97662.50;;;4.07;89.24
16461;BME280;8341;42.048;24.650;2023-01-29T09:08:36;97662.50;;;4.07;89.95
16461;BME280;8341;42.048;24.650;2023-01-29T09:11:03;97655.59;;;4.06;89.99
16461;BME280;8341;42.048;24.650;2023-01-29T09:13:30;97651.38;;;4.05;88.78
16461;BME280;8341;42.048;24.650;2023-01-29T09:15:58;97660.66;;;4.04;89.42
16461;BME280;8341;42.048;24.650;2023-01-29T09:18:26;97660.72;;;4.01;90.00
16461;BME280;8341;42.048;24.650;2023-01-29T09:20:56;97651.75;;;4.23;89.41
16461;BME280;8341;42.048;24.650;2023-01-29T09:23:23;97650.75;;;4.33;87.65
16461;BME280;8341;42.048;24.650;2023-01-29T09:25:50;97654.13;;;4.37;87.56
16461;BME280;8341;42.048;24.650;2023-01-29T09:28:17;97652.75;;;4.29;87.61
16461;BME280;8341;42.048;24.650;2023-01-29T09:30:43;97660.63;;;4.40;86.68
16461;BME280;8341;42.048;24.650;2023-01-29T09:33:11;97647.81;;;4.44;86.86
16461;BME280;8341;42.048;24.650;2023-01-29T09:35:39;97649.38;;;4.25;88.52
16461;BME280;8341;42.048;24.650;2023-01-29T09:38:09;97653.44;;;4.33;87.28
16461;BME280;8341;42.048;24.650;2023-01-29T09:40:44;97650.06;;;4.29;87.57
16461;BME280;8341;42.048;24.650;2023-01-29T09:43:15;97640.63;;;4.37;87.11
16461;BME280;8341;42.048;24.650;2023-01-29T09:45:50;97647.88;;;4.40;87.28
16461;BME280;8341;42.048;24.650;2023-01-29T09:48:21;97641.38;;;4.38;85.91
16461;BME280;8341;42.048;24.650;2023-01-29T09:50:50;97622.22;;;4.32;87.00
16461;BME280;8341;42.048;24.650;2023-01-29T09:53:26;97630.75;;;4.47;86.89
16461;BME280;8341;42.048;24.650;2023-01-29T09:56:00;97645.72;;;4.52;85.97
16461;BME280;8341;42.048;24.650;2023-01-29T09:58:31;97639.84;;;4.37;85.05
16461;BME280;8341;42.048;24.650;2023-01-29T10:01:07;97633.72;;;4.53;85.02
16461;BME280;8341;42.048;24.650;2023-01-29T10:03:49;97640.72;;;4.50;86.57
16461;BME280;8341;42.048;24.650;2023-01-29T10:06:26;97635.06;;;4.44;86.51
16461;BME280;8341;42.048;24.650;2023-01-29T10:12:14;97632.28;;;4.64;85.81
16461;BME280;8341;42.048;24.650;2023-01-29T10:14:51;97627.88;;;4.70;83.98
16461;BME280;8341;42.048;24.650;2023-01-29T10:17:38;97624.78;;;4.72;84.10
16461;BME280;8341;42.048;24.650;2023-01-29T10:20:37;97623.56;;;4.73;83.79
16461;BME280;8341;42.048;24.650;2023-01-29T10:23:21;97623.06;;;4.78;82.96
16461;BME280;8341;42.048;24.650;2023-01-29T10:25:51;97627.66;;;4.65;83.57
16461;BME280;8341;42.048;24.650;2023-01-29T10:28:23;97620.28;;;4.65;83.67
16461;BME280;8341;42.048;24.650;2023-01-29T10:30:55;97609.16;;;4.63;83.00
16461;BME280;8341;42.048;24.650;2023-01-29T10:33:27;97603.41;;;4.45;84.31
16461;BME280;8341;42.048;24.650;2023-01-29T10:36:01;97606.13;;;4.61;83.47
16461;BME280;8341;42.048;24.650;2023-01-29T10:38:39;97600.91;;;4.54;84.09
16461;BME280;8341;42.048;24.650;2023-01-29T10:41:36;97596.22;;;4.71;83.00
16461;BME280;8341;42.048;24.650;2023-01-29T10:44:16;97594.81;;;4.66;82.68
16461;BME280;8341;42.048;24.650;2023-01-29T10:46:57;97593.63;;;4.67;83.07
16461;BME280;8341;42.048;24.650;2023-01-29T10:49:41;97586.13;;;4.59;83.23
16461;BME280;8341;42.048;24.650;2023-01-29T10:52:25;97595.13;;;4.68;82.36
16461;BME280;8341;42.048;24.650;2023-01-29T10:55:04;97591.16;;;4.73;81.88
16461;BME280;8341;42.048;24.650;2023-01-29T10:57:45;97588.44;;;4.89;80.65
16461;BME280;8341;42.048;24.650;2023-01-29T11:00:19;97581.03;;;4.77;80.54
16461;BME280;8341;42.048;24.650;2023-01-29T11:02:48;97579.16;;;4.90;80.08
16461;BME280;8341;42.048;24.650;2023-01-29T11:05:19;97573.75;;;4.90;79.44
16461;BME280;8341;42.048;24.650;2023-01-29T11:07:57;97570.69;;;4.88;79.96
16461;BME280;8341;42.048;24.650;2023-01-29T11:10:28;97564.44;;;4.91;80.05
16461;BME280;8341;42.048;24.650;2023-01-29T11:12:58;97570.03;;;4.84;79.47
16461;BME280;8341;42.048;24.650;2023-01-29T11:15:28;97566.59;;;5.12;77.49
16461;BME280;8341;42.048;24.650;2023-01-29T11:18:02;97553.97;;;4.93;77.89
16461;BME280;8341;42.048;24.650;2023-01-29T11:20:31;97563.19;;;4.95;78.79
16461;BME280;8341;42.048;24.650;2023-01-29T11:22:58;97568.34;;;4.90;78.47
16461;BME280;8341;42.048;24.650;2023-01-29T11:25:25;97543.66;;;4.88;78.67
16461;BME280;8341;42.048;24.650;2023-01-29T11:27:55;97554.25;;;5.11;77.88
16461;BME280;8341;42.048;24.650;2023-01-29T11:30:27;97551.69;;;5.20;77.43
16461;BME280;8341;42.048;24.650;2023-01-29T11:33:06;97527.63;;;4.97;76.83
16461;BME280;8341;42.048;24.650;2023-01-29T11:35:35;97545.09;;;5.21;76.83
16461;BME280;8341;42.048;24.650;2023-01-29T11:38:17;97544.56;;;5.26;76.93
16461;BME280;8341;42.048;24.650;2023-01-29T11:40:44;97538.38;;;5.13;76.35
16461;BME280;8341;42.048;24.650;2023-01-29T11:43:19;97535.50;;;5.33;75.77
16461;BME280;8341;42.048;24.650;2023-01-29T11:45:50;97521.97;;;4.91;75.83
16461;BME280;8341;42.048;24.650;2023-01-29T11:48:19;97540.59;;;5.02;76.79
16461;BME280;8341;42.048;24.650;2023-01-29T11:50:52;97535.63;;;5.00;76.23
16461;BME280;8341;42.048;24.650;2023-01-29T11:53:35;97531.75;;;5.14;76.61
16461;BME280;8341;42.048;24.650;2023-01-29T11:56:06;97527.88;;;5.15;75.94
16461;BME280;8341;42.048;24.650;2023-01-29T11:58:41;97536.19;;;5.08;76.43
16461;BME280;8341;42.048;24.650;2023-01-29T12:01:11;97520.84;;;5.05;76.20
16461;BME280;8341;42.048;24.650;2023-01-29T12:03:41;97528.75;;;5.25;75.64
16461;BME280;8341;42.048;24.650;2023-01-29T12:06:17;97521.09;;;5.23;74.94
16461;BME280;8341;42.048;24.650;2023-01-29T12:08:53;97525.59;;;5.14;76.18
16461;BME280;8341;42.048;24.650;2023-01-29T12:11:24;97519.56;;;5.22;74.72
16461;BME280;8341;42.048;24.650;2023-01-29T12:13:53;97525.72;;;5.10;74.42
16461;BME280;8341;42.048;24.650;2023-01-29T12:16:25;97519.88;;;5.24;75.09
16461;BME280;8341;42.048;24.650;2023-01-29T12:18:57;97519.59;;;5.35;74.35
16461;BME280;8341;42.048;24.650;2023-01-29T12:21:32;97526.50;;;5.23;74.62
16461;BME280;8341;42.048;24.650;2023-01-29T12:24:05;97527.91;;;5.28;74.02
16461;BME280;8341;42.048;24.650;2023-01-29T12:26:34;97520.91;;;5.43;73.81
16461;BME280;8341;42.048;24.650;2023-01-29T12:29:15;97498.41;;;5.33;73.44
16461;BME280;8341;42.048;24.650;2023-01-29T12:31:53;97516.88;;;5.35;74.42
16461;BME280;8341;42.048;24.650;2023-01-29T12:34:32;97494.28;;;5.16;73.86
16461;BME280;8341;42.048;24.650;2023-01-29T12:37:08;97501.63;;;5.28;75.04
16461;BME280;8341;42.048;24.650;2023-01-29T12:39:38;97500.66;;;5.35;74.79
16461;BME280;8341;42.048;24.650;2023-01-29T12:42:10;97506.38;;;5.24;74.77
16461;BME280;8341;42.048;24.650;2023-01-29T12:44:43;97496.84;;;5.07;75.90
16461;BME280;8341;42.048;24.650;2023-01-29T12:47:16;97490.00;;;5.02;75.68
16461;BME280;8341;42.048;24.650;2023-01-29T12:49:49;97496.75;;;5.11;75.75
16461;BME280;8341;42.048;24.650;2023-01-29T12:52:21;97496.63;;;5.14;75.30
16461;BME280;8341;42.048;24.650;2023-01-29T12:54:57;97491.88;;;5.05;75.06
16461;BME280;8341;42.048;24.650;2023-01-29T12:57:35;97482.31;;;5.01;75.67
16461;BME280;8341;42.048;24.650;2023-01-29T13:00:10;97470.88;;;4.97;76.05
16461;BME280;8341;42.048;24.650;2023-01-29T13:02:46;97496.03;;;5.35;74.16
16461;BME280;8341;42.048;24.650;2023-01-29T13:05:20;97489.75;;;5.26;74.92
16461;BME280;8341;42.048;24.650;2023-01-29T13:07:56;97477.94;;;5.20;74.84
16461;BME280;8341;42.048;24.650;2023-01-29T13:10:27;97489.97;;;5.31;75.04
16461;BME280;8341;42.048;24.650;2023-01-29T13:12:58;97485.50;;;5.25;74.81
16461;BME280;8341;42.048;24.650;2023-01-29T13:15:29;97482.88;;;5.08;73.66
16461;BME280;8341;42.048;24.650;2023-01-29T13:18:21;97494.38;;;5.25;73.44
16461;BME280;8341;42.048;24.650;2023-01-29T13:20:49;97495.78;;;5.30;74.71
16461;BME280;8341;42.048;24.650;2023-01-29T13:23:20;97483.25;;;5.23;73.46
16461;BME280;8341;42.048;24.650;2023-01-29T13:25:50;97499.47;;;5.23;74.13
16461;BME280;8341;42.048;24.650;2023-01-29T13:28:18;97504.19;;;5.19;74.08
16461;BME280;8341;42.048;24.650;2023-01-29T13:30:46;97504.41;;;5.12;74.12
16461;BME280;8341;42.048;24.650;2023-01-29T13:33:35;97498.47;;;5.17;74.47
16461;BME280;8341;42.048;24.650;2023-01-29T13:36:04;97492.84;;;5.12;74.32